KATL/ATL METAR and TAF weather

Enter ICAO airport designator
Station Type Date Time Source
KATL METAR 2021/05/15 23:52 UTC NOAA

KATL 152352Z 22004KT 10SM SCT075 SCT250 22/08 A3019 RMK AO2 SLP217 T02220078 10244 20222 55008


Station Type Date Time Source
KATL Decoded METAR 2021/05/15 23:52 UTC NOAA

HARTSFIELD-JACKSON ATLANTA, GA, United States (KATL) 33-39N 84-26W
May 15, 2021 - 07:52 PM EDT / 2021.05.15 2352 UTC
Wind: from the SW (220 degrees) at 5 MPH (4 KT):0
Visibility: 10 mile(s):0
Sky conditions: partly cloudy
Temperature: 72.0 F (22.2 C)
Dew Point: 46.0 F (7.8 C)
Relative Humidity: 39%
Pressure (altimeter): 30.19 in. Hg (1022 hPa)
Pressure tendency: 0.02 inches (0.8 hPa) lower than three hours ago
ob: KATL 152352Z 22004KT 10SM SCT075 SCT250 22/08 A3019 RMK AO2 SLP217 T02220078 10244 20222 55008
cycle: 0

Station Type Date Time Source
KATL TAF 2021/05/15 22:58 UTC NOAA

TAF
AMD KATL 152157Z 1522/1624 22005KT P6SM BKN080
FM160100 VRB03KT P6SM FEW250
FM161500 21007KT P6SM SCT060

Example: see airport list